sensor_id;sensor_type;location;lat;lon;timestamp;P1;durP1;ratioP1;P2;durP2;ratioP2
11821;SDS011;5968;50.362;8.982;2022-07-23T00:01:33;3.47;;;2.33;;
11821;SDS011;5968;50.362;8.982;2022-07-23T00:04:03;2.67;;;2.30;;
11821;SDS011;5968;50.362;8.982;2022-07-23T00:06:35;3.63;;;2.70;;
11821;SDS011;5968;50.362;8.982;2022-07-23T00:09:03;2.80;;;2.20;;
11821;SDS011;5968;50.362;8.982;2022-07-23T00:11:37;2.50;;;2.30;;
11821;SDS011;5968;50.362;8.982;2022-07-23T00:14:06;3.03;;;2.50;;
11821;SDS011;5968;50.362;8.982;2022-07-23T00:19:25;3.37;;;2.83;;
11821;SDS011;5968;50.362;8.982;2022-07-23T00:21:55;2.80;;;2.57;;
11821;SDS011;5968;50.362;8.982;2022-07-23T00:24:23;2.83;;;2.17;;
11821;SDS011;5968;50.362;8.982;2022-07-23T00:26:51;3.13;;;2.43;;
11821;SDS011;5968;50.362;8.982;2022-07-23T00:29:19;2.90;;;2.50;;
11821;SDS011;5968;50.362;8.982;2022-07-23T00:31:53;4.07;;;2.80;;
11821;SDS011;5968;50.362;8.982;2022-07-23T00:34:21;2.10;;;2.00;;
11821;SDS011;5968;50.362;8.982;2022-07-23T00:36:51;2.83;;;2.20;;
11821;SDS011;5968;50.362;8.982;2022-07-23T00:39:20;3.47;;;2.37;;
11821;SDS011;5968;50.362;8.982;2022-07-23T00:41:48;3.37;;;2.40;;
11821;SDS011;5968;50.362;8.982;2022-07-23T00:44:18;2.80;;;2.07;;
11821;SDS011;5968;50.362;8.982;2022-07-23T00:46:48;3.30;;;2.43;;
11821;SDS011;5968;50.362;8.982;2022-07-23T00:49:21;3.70;;;2.50;;
11821;SDS011;5968;50.362;8.982;2022-07-23T00:51:52;3.50;;;3.20;;
11821;SDS011;5968;50.362;8.982;2022-07-23T00:54:22;3.07;;;2.43;;
11821;SDS011;5968;50.362;8.982;2022-07-23T00:56:51;3.47;;;2.40;;
11821;SDS011;5968;50.362;8.982;2022-07-23T00:59:19;4.10;;;2.53;;
11821;SDS011;5968;50.362;8.982;2022-07-23T01:04:20;3.47;;;2.47;;
11821;SDS011;5968;50.362;8.982;2022-07-23T01:06:48;3.17;;;2.43;;
11821;SDS011;5968;50.362;8.982;2022-07-23T01:09:18;2.70;;;2.30;;
11821;SDS011;5968;50.362;8.982;2022-07-23T01:11:47;3.17;;;2.53;;
11821;SDS011;5968;50.362;8.982;2022-07-23T01:14:15;4.23;;;2.73;;
11821;SDS011;5968;50.362;8.982;2022-07-23T01:16:52;3.33;;;2.10;;
11821;SDS011;5968;50.362;8.982;2022-07-23T01:19:21;4.20;;;3.20;;
11821;SDS011;5968;50.362;8.982;2022-07-23T01:21:50;2.80;;;2.50;;
11821;SDS011;5968;50.362;8.982;2022-07-23T01:24:22;3.67;;;3.17;;
11821;SDS011;5968;50.362;8.982;2022-07-23T01:26:50;3.00;;;2.70;;
11821;SDS011;5968;50.362;8.982;2022-07-23T01:29:18;4.07;;;3.30;;
11821;SDS011;5968;50.362;8.982;2022-07-23T01:31:53;4.80;;;3.00;;
11821;SDS011;5968;50.362;8.982;2022-07-23T01:34:21;4.13;;;2.30;;
11821;SDS011;5968;50.362;8.982;2022-07-23T01:36:50;2.80;;;2.60;;
11821;SDS011;5968;50.362;8.982;2022-07-23T01:39:25;3.10;;;2.40;;
11821;SDS011;5968;50.362;8.982;2022-07-23T01:41:53;3.70;;;3.17;;
11821;SDS011;5968;50.362;8.982;2022-07-23T01:44:21;5.27;;;3.30;;
11821;SDS011;5968;50.362;8.982;2022-07-23T01:46:49;3.20;;;2.90;;
11821;SDS011;5968;50.362;8.982;2022-07-23T01:49:17;3.93;;;3.40;;
11821;SDS011;5968;50.362;8.982;2022-07-23T01:51:47;3.90;;;2.87;;
11821;SDS011;5968;50.362;8.982;2022-07-23T01:54:29;3.03;;;2.63;;
11821;SDS011;5968;50.362;8.982;2022-07-23T01:57:00;3.10;;;2.50;;
11821;SDS011;5968;50.362;8.982;2022-07-23T01:59:28;4.07;;;2.43;;
11821;SDS011;5968;50.362;8.982;2022-07-23T02:01:56;2.87;;;2.57;;
11821;SDS011;5968;50.362;8.982;2022-07-23T02:04:33;3.03;;;2.50;;
11821;SDS011;5968;50.362;8.982;2022-07-23T02:07:03;2.93;;;2.57;;
11821;SDS011;5968;50.362;8.982;2022-07-23T02:09:32;3.87;;;3.13;;
11821;SDS011;5968;50.362;8.982;2022-07-23T02:12:01;5.50;;;3.27;;
11821;SDS011;5968;50.362;8.982;2022-07-23T02:14:29;5.03;;;3.17;;
11821;SDS011;5968;50.362;8.982;2022-07-23T02:16:57;4.93;;;3.30;;
11821;SDS011;5968;50.362;8.982;2022-07-23T02:19:25;3.50;;;2.90;;
11821;SDS011;5968;50.362;8.982;2022-07-23T02:21:53;5.53;;;4.03;;
11821;SDS011;5968;50.362;8.982;2022-07-23T02:24:22;3.60;;;3.27;;
11821;SDS011;5968;50.362;8.982;2022-07-23T02:30:39;5.03;;;3.57;;
11821;SDS011;5968;50.362;8.982;2022-07-23T02:33:12;3.80;;;2.70;;
11821;SDS011;5968;50.362;8.982;2022-07-23T02:35:55;3.77;;;3.30;;
11821;SDS011;5968;50.362;8.982;2022-07-23T02:38:23;6.00;;;3.27;;
11821;SDS011;5968;50.362;8.982;2022-07-23T02:40:52;4.70;;;3.13;;
11821;SDS011;5968;50.362;8.982;2022-07-23T02:43:20;4.63;;;3.50;;
11821;SDS011;5968;50.362;8.982;2022-07-23T02:48:46;3.97;;;3.03;;
11821;SDS011;5968;50.362;8.982;2022-07-23T02:51:33;4.73;;;3.10;;
11821;SDS011;5968;50.362;8.982;2022-07-23T02:54:01;5.33;;;3.20;;
11821;SDS011;5968;50.362;8.982;2022-07-23T02:56:34;4.03;;;3.30;;
11821;SDS011;5968;50.362;8.982;2022-07-23T02:59:02;6.17;;;3.83;;
11821;SDS011;5968;50.362;8.982;2022-07-23T03:01:32;4.63;;;3.80;;
11821;SDS011;5968;50.362;8.982;2022-07-23T03:04:01;5.97;;;3.73;;
11821;SDS011;5968;50.362;8.982;2022-07-23T03:06:40;5.33;;;3.80;;
11821;SDS011;5968;50.362;8.982;2022-07-23T03:09:10;4.13;;;3.07;;
11821;SDS011;5968;50.362;8.982;2022-07-23T03:11:38;5.07;;;3.73;;
11821;SDS011;5968;50.362;8.982;2022-07-23T03:17:06;6.33;;;3.97;;
11821;SDS011;5968;50.362;8.982;2022-07-23T03:22:06;6.47;;;4.53;;
11821;SDS011;5968;50.362;8.982;2022-07-23T03:24:39;6.20;;;4.07;;
11821;SDS011;5968;50.362;8.982;2022-07-23T03:27:23;6.30;;;4.23;;
11821;SDS011;5968;50.362;8.982;2022-07-23T03:29:54;5.47;;;3.97;;
11821;SDS011;5968;50.362;8.982;2022-07-23T03:32:23;7.60;;;4.20;;
11821;SDS011;5968;50.362;8.982;2022-07-23T03:34:53;5.83;;;4.27;;
11821;SDS011;5968;50.362;8.982;2022-07-23T03:37:21;8.77;;;4.77;;
11821;SDS011;5968;50.362;8.982;2022-07-23T03:39:50;7.07;;;4.70;;
11821;SDS011;5968;50.362;8.982;2022-07-23T03:42:20;9.37;;;4.47;;
11821;SDS011;5968;50.362;8.982;2022-07-23T03:44:48;6.83;;;4.30;;
11821;SDS011;5968;50.362;8.982;2022-07-23T03:47:16;8.40;;;5.30;;
11821;SDS011;5968;50.362;8.982;2022-07-23T03:49:55;7.10;;;4.27;;
11821;SDS011;5968;50.362;8.982;2022-07-23T03:52:23;9.77;;;4.57;;
11821;SDS011;5968;50.362;8.982;2022-07-23T03:54:53;7.30;;;4.97;;
11821;SDS011;5968;50.362;8.982;2022-07-23T03:57:21;5.90;;;4.47;;
11821;SDS011;5968;50.362;8.982;2022-07-23T03:59:49;6.17;;;4.10;;
11821;SDS011;5968;50.362;8.982;2022-07-23T04:02:35;6.23;;;4.40;;
11821;SDS011;5968;50.362;8.982;2022-07-23T04:05:06;7.87;;;4.00;;
11821;SDS011;5968;50.362;8.982;2022-07-23T04:07:45;7.73;;;4.87;;
11821;SDS011;5968;50.362;8.982;2022-07-23T04:10:13;6.83;;;4.93;;
11821;SDS011;5968;50.362;8.982;2022-07-23T04:12:41;6.27;;;4.73;;
11821;SDS011;5968;50.362;8.982;2022-07-23T04:15:10;7.37;;;4.17;;
11821;SDS011;5968;50.362;8.982;2022-07-23T04:17:47;5.97;;;4.10;;
11821;SDS011;5968;50.362;8.982;2022-07-23T04:20:17;6.13;;;3.47;;
11821;SDS011;5968;50.362;8.982;2022-07-23T04:22:45;6.53;;;3.60;;
11821;SDS011;5968;50.362;8.982;2022-07-23T04:25:23;4.80;;;3.67;;
11821;SDS011;5968;50.362;8.982;2022-07-23T04:27:51;6.00;;;4.17;;
11821;SDS011;5968;50.362;8.982;2022-07-23T04:30:23;7.70;;;4.53;;
11821;SDS011;5968;50.362;8.982;2022-07-23T04:32:51;8.63;;;3.97;;
11821;SDS011;5968;50.362;8.982;2022-07-23T04:35:20;6.33;;;3.43;;
11821;SDS011;5968;50.362;8.982;2022-07-23T04:37:48;5.17;;;3.90;;
11821;SDS011;5968;50.362;8.982;2022-07-23T04:40:16;6.10;;;3.80;;
11821;SDS011;5968;50.362;8.982;2022-07-23T04:42:45;5.40;;;3.70;;
11821;SDS011;5968;50.362;8.982;2022-07-23T04:45:12;7.23;;;4.03;;
11821;SDS011;5968;50.362;8.982;2022-07-23T04:47:41;7.73;;;4.10;;
11821;SDS011;5968;50.362;8.982;2022-07-23T04:50:10;5.87;;;4.03;;
11821;SDS011;5968;50.362;8.982;2022-07-23T04:52:40;8.67;;;5.47;;
11821;SDS011;5968;50.362;8.982;2022-07-23T04:55:08;7.03;;;4.43;;
11821;SDS011;5968;50.362;8.982;2022-07-23T04:57:36;5.70;;;4.07;;
11821;SDS011;5968;50.362;8.982;2022-07-23T05:00:05;7.40;;;4.33;;
11821;SDS011;5968;50.362;8.982;2022-07-23T05:02:35;6.57;;;4.23;;
11821;SDS011;5968;50.362;8.982;2022-07-23T05:05:08;8.40;;;4.27;;
11821;SDS011;5968;50.362;8.982;2022-07-23T05:07:36;5.00;;;3.93;;
11821;SDS011;5968;50.362;8.982;2022-07-23T05:10:07;4.90;;;3.47;;
11821;SDS011;5968;50.362;8.982;2022-07-23T05:12:36;4.97;;;3.43;;
11821;SDS011;5968;50.362;8.982;2022-07-23T05:15:04;6.27;;;3.90;;
11821;SDS011;5968;50.362;8.982;2022-07-23T05:17:32;4.90;;;3.70;;
11821;SDS011;5968;50.362;8.982;2022-07-23T05:20:00;5.60;;;4.37;;
11821;SDS011;5968;50.362;8.982;2022-07-23T05:22:29;5.63;;;4.10;;
11821;SDS011;5968;50.362;8.982;2022-07-23T05:25:01;7.07;;;4.33;;
11821;SDS011;5968;50.362;8.982;2022-07-23T05:27:32;5.50;;;3.83;;
11821;SDS011;5968;50.362;8.982;2022-07-23T05:30:00;6.63;;;3.90;;
11821;SDS011;5968;50.362;8.982;2022-07-23T05:32:28;6.77;;;3.97;;
11821;SDS011;5968;50.362;8.982;2022-07-23T05:34:58;6.10;;;3.90;;
11821;SDS011;5968;50.362;8.982;2022-07-23T05:37:32;8.33;;;3.63;;
11821;SDS011;5968;50.362;8.982;2022-07-23T05:40:01;5.43;;;4.20;;
11821;SDS011;5968;50.362;8.982;2022-07-23T05:42:31;8.07;;;4.63;;
11821;SDS011;5968;50.362;8.982;2022-07-23T05:44:59;6.43;;;4.10;;
11821;SDS011;5968;50.362;8.982;2022-07-23T05:47:28;7.50;;;4.00;;
11821;SDS011;5968;50.362;8.982;2022-07-23T05:50:06;4.97;;;3.50;;
11821;SDS011;5968;50.362;8.982;2022-07-23T05:52:34;5.47;;;4.10;;
11821;SDS011;5968;50.362;8.982;2022-07-23T05:55:02;8.47;;;4.43;;
11821;SDS011;5968;50.362;8.982;2022-07-23T05:57:33;7.43;;;4.20;;
11821;SDS011;5968;50.362;8.982;2022-07-23T06:00:02;6.13;;;4.47;;
11821;SDS011;5968;50.362;8.982;2022-07-23T06:02:31;6.20;;;4.40;;
11821;SDS011;5968;50.362;8.982;2022-07-23T06:05:00;4.67;;;3.83;;
11821;SDS011;5968;50.362;8.982;2022-07-23T06:07:28;5.23;;;3.80;;
11821;SDS011;5968;50.362;8.982;2022-07-23T06:09:56;5.27;;;3.97;;
11821;SDS011;5968;50.362;8.982;2022-07-23T06:12:29;8.73;;;4.40;;
11821;SDS011;5968;50.362;8.982;2022-07-23T06:14:59;5.07;;;3.90;;
11821;SDS011;5968;50.362;8.982;2022-07-23T06:17:27;5.07;;;4.00;;
11821;SDS011;5968;50.362;8.982;2022-07-23T06:19:55;4.30;;;3.37;;
11821;SDS011;5968;50.362;8.982;2022-07-23T06:22:23;8.13;;;3.13;;
11821;SDS011;5968;50.362;8.982;2022-07-23T06:24:52;6.93;;;3.90;;
11821;SDS011;5968;50.362;8.982;2022-07-23T06:27:20;6.10;;;3.53;;
11821;SDS011;5968;50.362;8.982;2022-07-23T06:29:59;4.60;;;3.60;;
11821;SDS011;5968;50.362;8.982;2022-07-23T06:32:27;3.83;;;3.27;;
11821;SDS011;5968;50.362;8.982;2022-07-23T06:34:55;5.13;;;3.50;;
11821;SDS011;5968;50.362;8.982;2022-07-23T06:37:23;6.73;;;3.30;;
11821;SDS011;5968;50.362;8.982;2022-07-23T06:39:52;6.27;;;3.53;;
11821;SDS011;5968;50.362;8.982;2022-07-23T06:42:21;4.30;;;3.50;;
11821;SDS011;5968;50.362;8.982;2022-07-23T06:44:49;4.90;;;3.20;;
11821;SDS011;5968;50.362;8.982;2022-07-23T06:47:19;4.27;;;3.50;;
11821;SDS011;5968;50.362;8.982;2022-07-23T06:49:47;4.13;;;3.30;;
11821;SDS011;5968;50.362;8.982;2022-07-23T06:52:15;5.43;;;3.70;;
11821;SDS011;5968;50.362;8.982;2022-07-23T06:54:42;4.40;;;3.40;;
11821;SDS011;5968;50.362;8.982;2022-07-23T06:57:10;4.83;;;3.40;;
11821;SDS011;5968;50.362;8.982;2022-07-23T06:59:38;4.57;;;3.93;;
11821;SDS011;5968;50.362;8.982;2022-07-23T07:02:07;4.43;;;2.90;;
11821;SDS011;5968;50.362;8.982;2022-07-23T07:04:36;3.80;;;3.00;;
11821;SDS011;5968;50.362;8.982;2022-07-23T07:07:04;3.77;;;3.20;;
11821;SDS011;5968;50.362;8.982;2022-07-23T07:09:33;3.87;;;2.63;;
11821;SDS011;5968;50.362;8.982;2022-07-23T07:12:01;4.07;;;3.47;;
11821;SDS011;5968;50.362;8.982;2022-07-23T07:14:28;3.03;;;2.67;;
11821;SDS011;5968;50.362;8.982;2022-07-23T07:16:56;4.47;;;3.07;;
11821;SDS011;5968;50.362;8.982;2022-07-23T07:19:24;5.13;;;3.47;;
11821;SDS011;5968;50.362;8.982;2022-07-23T07:21:53;4.10;;;3.23;;
11821;SDS011;5968;50.362;8.982;2022-07-23T07:24:21;4.30;;;3.57;;
11821;SDS011;5968;50.362;8.982;2022-07-23T07:26:57;3.53;;;2.63;;
11821;SDS011;5968;50.362;8.982;2022-07-23T07:29:25;6.60;;;3.23;;
11821;SDS011;5968;50.362;8.982;2022-07-23T07:31:53;4.33;;;3.43;;
11821;SDS011;5968;50.362;8.982;2022-07-23T07:34:21;5.90;;;3.17;;
11821;SDS011;5968;50.362;8.982;2022-07-23T07:36:48;3.03;;;2.73;;
11821;SDS011;5968;50.362;8.982;2022-07-23T07:39:18;3.70;;;3.07;;
11821;SDS011;5968;50.362;8.982;2022-07-23T07:41:46;4.47;;;3.27;;
11821;SDS011;5968;50.362;8.982;2022-07-23T07:44:13;3.70;;;3.30;;
11821;SDS011;5968;50.362;8.982;2022-07-23T07:46:42;2.93;;;2.63;;
11821;SDS011;5968;50.362;8.982;2022-07-23T07:49:27;5.08;;;3.93;;
11821;SDS011;5968;50.362;8.982;2022-07-23T07:52:00;4.03;;;3.20;;
11821;SDS011;5968;50.362;8.982;2022-07-23T07:54:30;4.57;;;2.83;;
11821;SDS011;5968;50.362;8.982;2022-07-23T07:56:58;6.63;;;3.10;;
11821;SDS011;5968;50.362;8.982;2022-07-23T07:59:27;2.70;;;2.50;;
11821;SDS011;5968;50.362;8.982;2022-07-23T08:01:59;4.33;;;3.17;;
11821;SDS011;5968;50.362;8.982;2022-07-23T08:04:27;3.40;;;3.10;;
11821;SDS011;5968;50.362;8.982;2022-07-23T08:06:55;3.53;;;3.03;;
11821;SDS011;5968;50.362;8.982;2022-07-23T08:09:22;3.67;;;3.33;;
11821;SDS011;5968;50.362;8.982;2022-07-23T08:11:52;4.17;;;3.10;;
11821;SDS011;5968;50.362;8.982;2022-07-23T08:14:19;4.03;;;3.67;;
11821;SDS011;5968;50.362;8.982;2022-07-23T08:16:47;3.03;;;2.70;;
11821;SDS011;5968;50.362;8.982;2022-07-23T08:19:35;3.67;;;3.37;;
11821;SDS011;5968;50.362;8.982;2022-07-23T08:22:04;3.43;;;3.13;;
11821;SDS011;5968;50.362;8.982;2022-07-23T08:24:31;7.93;;;2.63;;
11821;SDS011;5968;50.362;8.982;2022-07-23T08:27:02;3.40;;;2.83;;
11821;SDS011;5968;50.362;8.982;2022-07-23T08:29:30;3.63;;;2.80;;
11821;SDS011;5968;50.362;8.982;2022-07-23T08:31:57;6.53;;;3.17;;
11821;SDS011;5968;50.362;8.982;2022-07-23T08:34:45;5.70;;;3.23;;
11821;SDS011;5968;50.362;8.982;2022-07-23T08:37:13;7.93;;;3.70;;
11821;SDS011;5968;50.362;8.982;2022-07-23T08:39:41;3.17;;;2.87;;
11821;SDS011;5968;50.362;8.982;2022-07-23T08:42:10;3.63;;;3.33;;
11821;SDS011;5968;50.362;8.982;2022-07-23T08:44:39;4.07;;;3.30;;
11821;SDS011;5968;50.362;8.982;2022-07-23T08:47:12;3.40;;;3.10;;
11821;SDS011;5968;50.362;8.982;2022-07-23T08:49:41;4.53;;;3.50;;
11821;SDS011;5968;50.362;8.982;2022-07-23T08:52:11;4.80;;;3.20;;
11821;SDS011;5968;50.362;8.982;2022-07-23T08:54:39;5.47;;;2.70;;
11821;SDS011;5968;50.362;8.982;2022-07-23T08:57:07;3.90;;;3.17;;
11821;SDS011;5968;50.362;8.982;2022-07-23T08:59:37;3.43;;;3.03;;
11821;SDS011;5968;50.362;8.982;2022-07-23T09:02:04;5.00;;;2.77;;
11821;SDS011;5968;50.362;8.982;2022-07-23T09:04:32;4.47;;;3.40;;
11821;SDS011;5968;50.362;8.982;2022-07-23T09:07:01;4.33;;;3.57;;
11821;SDS011;5968;50.362;8.982;2022-07-23T09:09:29;4.83;;;3.00;;
11821;SDS011;5968;50.362;8.982;2022-07-23T09:12:04;3.87;;;2.97;;
11821;SDS011;5968;50.362;8.982;2022-07-23T09:14:38;2.70;;;2.50;;
11821;SDS011;5968;50.362;8.982;2022-07-23T09:17:08;5.10;;;2.67;;
11821;SDS011;5968;50.362;8.982;2022-07-23T09:19:37;3.90;;;3.03;;
11821;SDS011;5968;50.362;8.982;2022-07-23T09:22:16;3.20;;;2.90;;
11821;SDS011;5968;50.362;8.982;2022-07-23T09:25:01;3.63;;;2.87;;
11821;SDS011;5968;50.362;8.982;2022-07-23T09:27:45;3.07;;;2.70;;
11821;SDS011;5968;50.362;8.982;2022-07-23T09:30:22;3.43;;;2.80;;
11821;SDS011;5968;50.362;8.982;2022-07-23T09:33:03;4.10;;;2.90;;
11821;SDS011;5968;50.362;8.982;2022-07-23T09:35:49;3.77;;;2.67;;
11821;SDS011;5968;50.362;8.982;2022-07-23T09:38:18;5.33;;;3.50;;
11821;SDS011;5968;50.362;8.982;2022-07-23T09:41:04;6.10;;;2.97;;
11821;SDS011;5968;50.362;8.982;2022-07-23T09:43:33;3.13;;;2.60;;
11821;SDS011;5968;50.362;8.982;2022-07-23T09:46:19;2.77;;;2.50;;
11821;SDS011;5968;50.362;8.982;2022-07-23T09:48:49;4.07;;;3.20;;
11821;SDS011;5968;50.362;8.982;2022-07-23T09:51:18;3.60;;;2.60;;
11821;SDS011;5968;50.362;8.982;2022-07-23T09:53:51;3.07;;;2.70;;
11821;SDS011;5968;50.362;8.982;2022-07-23T09:56:19;2.90;;;2.60;;
11821;SDS011;5968;50.362;8.982;2022-07-23T09:58:53;3.27;;;2.93;;
11821;SDS011;5968;50.362;8.982;2022-07-23T10:01:31;4.10;;;2.93;;
11821;SDS011;5968;50.362;8.982;2022-07-23T10:04:00;2.73;;;2.50;;
11821;SDS011;5968;50.362;8.982;2022-07-23T10:06:29;4.23;;;2.77;;
11821;SDS011;5968;50.362;8.982;2022-07-23T10:08:58;2.37;;;2.17;;
11821;SDS011;5968;50.362;8.982;2022-07-23T10:11:28;2.50;;;2.30;;
11821;SDS011;5968;50.362;8.982;2022-07-23T10:13:57;3.13;;;2.80;;
11821;SDS011;5968;50.362;8.982;2022-07-23T10:16:27;2.70;;;2.50;;
11821;SDS011;5968;50.362;8.982;2022-07-23T10:18:56;3.63;;;2.40;;
11821;SDS011;5968;50.362;8.982;2022-07-23T10:21:25;2.97;;;2.60;;
11821;SDS011;5968;50.362;8.982;2022-07-23T10:24:04;2.47;;;2.20;;
11821;SDS011;5968;50.362;8.982;2022-07-23T10:26:45;2.30;;;2.07;;
11821;SDS011;5968;50.362;8.982;2022-07-23T10:29:24;2.87;;;2.60;;
11821;SDS011;5968;50.362;8.982;2022-07-23T10:32:04;3.10;;;2.00;;
11821;SDS011;5968;50.362;8.982;2022-07-23T10:34:44;4.57;;;2.07;;
11821;SDS011;5968;50.362;8.982;2022-07-23T10:37:21;2.33;;;2.13;;
11821;SDS011;5968;50.362;8.982;2022-07-23T10:40:10;7.03;;;2.53;;
11821;SDS011;5968;50.362;8.982;2022-07-23T10:42:40;3.30;;;2.60;;
11821;SDS011;5968;50.362;8.982;2022-07-23T10:45:27;2.10;;;1.80;;
11821;SDS011;5968;50.362;8.982;2022-07-23T10:48:11;2.90;;;2.50;;
11821;SDS011;5968;50.362;8.982;2022-07-23T10:50:42;2.67;;;2.40;;
11821;SDS011;5968;50.362;8.982;2022-07-23T10:53:13;4.10;;;2.50;;
11821;SDS011;5968;50.362;8.982;2022-07-23T10:55:48;2.63;;;2.43;;
11821;SDS011;5968;50.362;8.982;2022-07-23T10:58:21;2.80;;;2.60;;
11821;SDS011;5968;50.362;8.982;2022-07-23T11:04:02;2.73;;;2.33;;
11821;SDS011;5968;50.362;8.982;2022-07-23T11:09:38;5.20;;;2.73;;
11821;SDS011;5968;50.362;8.982;2022-07-23T11:15:00;2.50;;;2.30;;
11821;SDS011;5968;50.362;8.982;2022-07-23T11:17:30;3.57;;;2.37;;
11821;SDS011;5968;50.362;8.982;2022-07-23T11:20:17;2.87;;;2.63;;
11821;SDS011;5968;50.362;8.982;2022-07-23T11:22:48;2.60;;;2.00;;
11821;SDS011;5968;50.362;8.982;2022-07-23T11:25:31;3.03;;;2.73;;
11821;SDS011;5968;50.362;8.982;2022-07-23T11:30:47;4.43;;;2.47;;
11821;SDS011;5968;50.362;8.982;2022-07-23T11:33:17;3.90;;;2.70;;
11821;SDS011;5968;50.362;8.982;2022-07-23T11:35:47;2.90;;;2.67;;
11821;SDS011;5968;50.362;8.982;2022-07-23T11:38:26;2.53;;;2.30;;
11821;SDS011;5968;50.362;8.982;2022-07-23T11:40:55;4.23;;;2.60;;
11821;SDS011;5968;50.362;8.982;2022-07-23T11:43:24;3.30;;;2.87;;
11821;SDS011;5968;50.362;8.982;2022-07-23T11:45:52;4.20;;;2.77;;
11821;SDS011;5968;50.362;8.982;2022-07-23T11:48:24;3.00;;;2.80;;
11821;SDS011;5968;50.362;8.982;2022-07-23T11:50:54;3.63;;;2.73;;
11821;SDS011;5968;50.362;8.982;2022-07-23T11:53:22;2.70;;;2.50;;
11821;SDS011;5968;50.362;8.982;2022-07-23T11:55:51;3.43;;;3.00;;
11821;SDS011;5968;50.362;8.982;2022-07-23T11:58:20;4.77;;;3.27;;
11821;SDS011;5968;50.362;8.982;2022-07-23T12:00:48;2.60;;;2.40;;
11821;SDS011;5968;50.362;8.982;2022-07-23T12:03:17;3.30;;;3.00;;
11821;SDS011;5968;50.362;8.982;2022-07-23T12:05:46;3.47;;;2.83;;
11821;SDS011;5968;50.362;8.982;2022-07-23T12:08:14;3.93;;;2.60;;
11821;SDS011;5968;50.362;8.982;2022-07-23T12:10:43;3.80;;;3.40;;
11821;SDS011;5968;50.362;8.982;2022-07-23T12:13:12;3.80;;;2.77;;
11821;SDS011;5968;50.362;8.982;2022-07-23T12:15:42;5.57;;;3.33;;
11821;SDS011;5968;50.362;8.982;2022-07-23T12:18:12;3.60;;;2.87;;
11821;SDS011;5968;50.362;8.982;2022-07-23T12:20:42;3.20;;;2.90;;
11821;SDS011;5968;50.362;8.982;2022-07-23T12:23:13;3.93;;;2.90;;
11821;SDS011;5968;50.362;8.982;2022-07-23T12:25:46;4.03;;;2.97;;
11821;SDS011;5968;50.362;8.982;2022-07-23T12:28:16;3.27;;;2.97;;
11821;SDS011;5968;50.362;8.982;2022-07-23T12:30:46;4.33;;;3.30;;
11821;SDS011;5968;50.362;8.982;2022-07-23T12:33:21;6.03;;;3.47;;
11821;SDS011;5968;50.362;8.982;2022-07-23T12:35:50;3.63;;;2.90;;
11821;SDS011;5968;50.362;8.982;2022-07-23T12:38:21;3.87;;;3.57;;
11821;SDS011;5968;50.362;8.982;2022-07-23T12:40:51;4.60;;;3.03;;
11821;SDS011;5968;50.362;8.982;2022-07-23T12:43:20;3.08;;;2.78;;
11821;SDS011;5968;50.362;8.982;2022-07-23T12:45:50;3.73;;;3.00;;
11821;SDS011;5968;50.362;8.982;2022-07-23T12:48:21;3.30;;;2.95;;
11821;SDS011;5968;50.362;8.982;2022-07-23T12:50:53;3.03;;;2.53;;
11821;SDS011;5968;50.362;8.982;2022-07-23T12:53:24;4.25;;;3.15;;
11821;SDS011;5968;50.362;8.982;2022-07-23T12:55:57;3.95;;;3.30;;
11821;SDS011;5968;50.362;8.982;2022-07-23T12:58:46;2.88;;;2.67;;
11821;SDS011;5968;50.362;8.982;2022-07-23T13:01:24;5.72;;;3.28;;
11821;SDS011;5968;50.362;8.982;2022-07-23T13:03:57;3.40;;;3.05;;
11821;SDS011;5968;50.362;8.982;2022-07-23T13:06:28;8.88;;;6.20;;
11821;SDS011;5968;50.362;8.982;2022-07-23T13:08:59;4.18;;;3.40;;
11821;SDS011;5968;50.362;8.982;2022-07-23T13:11:28;9.88;;;6.93;;
11821;SDS011;5968;50.362;8.982;2022-07-23T13:13:57;4.63;;;3.33;;
11821;SDS011;5968;50.362;8.982;2022-07-23T13:16:26;5.10;;;3.80;;
11821;SDS011;5968;50.362;8.982;2022-07-23T13:18:55;5.00;;;3.63;;
11821;SDS011;5968;50.362;8.982;2022-07-23T13:21:24;3.47;;;3.03;;
11821;SDS011;5968;50.362;8.982;2022-07-23T13:23:54;3.78;;;3.33;;
11821;SDS011;5968;50.362;8.982;2022-07-23T13:26:23;3.53;;;3.20;;
11821;SDS011;5968;50.362;8.982;2022-07-23T13:28:52;3.20;;;2.90;;
11821;SDS011;5968;50.362;8.982;2022-07-23T13:31:20;5.25;;;3.42;;
11821;SDS011;5968;50.362;8.982;2022-07-23T13:33:50;3.65;;;2.92;;
11821;SDS011;5968;50.362;8.982;2022-07-23T13:36:18;3.38;;;3.05;;
11821;SDS011;5968;50.362;8.982;2022-07-23T13:38:46;5.28;;;3.05;;
11821;SDS011;5968;50.362;8.982;2022-07-23T13:41:15;3.22;;;2.90;;
11821;SDS011;5968;50.362;8.982;2022-07-23T13:43:45;5.05;;;2.85;;
11821;SDS011;5968;50.362;8.982;2022-07-23T13:46:14;3.25;;;2.95;;
11821;SDS011;5968;50.362;8.982;2022-07-23T13:48:42;3.30;;;3.00;;
11821;SDS011;5968;50.362;8.982;2022-07-23T13:51:10;4.07;;;3.35;;
11821;SDS011;5968;50.362;8.982;2022-07-23T13:53:39;3.58;;;3.28;;
11821;SDS011;5968;50.362;8.982;2022-07-23T13:56:07;3.53;;;3.08;;
11821;SDS011;5968;50.362;8.982;2022-07-23T13:58:36;3.42;;;3.15;;
11821;SDS011;5968;50.362;8.982;2022-07-23T14:01:08;4.88;;;3.72;;
11821;SDS011;5968;50.362;8.982;2022-07-23T14:03:35;4.55;;;3.08;;
11821;SDS011;5968;50.362;8.982;2022-07-23T14:06:03;4.55;;;3.50;;
11821;SDS011;5968;50.362;8.982;2022-07-23T14:08:43;4.38;;;3.10;;
11821;SDS011;5968;50.362;8.982;2022-07-23T14:11:12;3.47;;;3.17;;
11821;SDS011;5968;50.362;8.982;2022-07-23T14:13:41;3.30;;;2.83;;
11821;SDS011;5968;50.362;8.982;2022-07-23T14:16:12;4.20;;;3.40;;
11821;SDS011;5968;50.362;8.982;2022-07-23T14:18:40;6.57;;;3.20;;
11821;SDS011;5968;50.362;8.982;2022-07-23T14:21:08;3.47;;;3.17;;
11821;SDS011;5968;50.362;8.982;2022-07-23T14:23:36;3.08;;;2.78;;
11821;SDS011;5968;50.362;8.982;2022-07-23T14:26:04;4.60;;;3.20;;
11821;SDS011;5968;50.362;8.982;2022-07-23T14:28:32;3.30;;;3.00;;
11821;SDS011;5968;50.362;8.982;2022-07-23T14:31:01;4.00;;;3.28;;
11821;SDS011;5968;50.362;8.982;2022-07-23T14:33:31;3.58;;;3.28;;
11821;SDS011;5968;50.362;8.982;2022-07-23T14:36:00;3.38;;;3.05;;
11821;SDS011;5968;50.362;8.982;2022-07-23T14:38:27;3.45;;;3.15;;
11821;SDS011;5968;50.362;8.982;2022-07-23T14:40:56;8.80;;;3.10;;
11821;SDS011;5968;50.362;8.982;2022-07-23T14:43:25;3.35;;;2.80;;
11821;SDS011;5968;50.362;8.982;2022-07-23T14:45:54;3.47;;;3.03;;
11821;SDS011;5968;50.362;8.982;2022-07-23T14:48:22;3.17;;;2.88;;
11821;SDS011;5968;50.362;8.982;2022-07-23T14:50:52;3.53;;;3.00;;
11821;SDS011;5968;50.362;8.982;2022-07-23T14:53:19;3.50;;;3.20;;
11821;SDS011;5968;50.362;8.982;2022-07-23T14:55:50;3.60;;;3.00;;
11821;SDS011;5968;50.362;8.982;2022-07-23T14:58:20;3.92;;;3.38;;
11821;SDS011;5968;50.362;8.982;2022-07-23T15:00:48;5.75;;;3.42;;
11821;SDS011;5968;50.362;8.982;2022-07-23T15:03:16;3.72;;;3.40;;
11821;SDS011;5968;50.362;8.982;2022-07-23T15:05:44;4.45;;;2.92;;
11821;SDS011;5968;50.362;8.982;2022-07-23T15:08:13;3.65;;;2.88;;
11821;SDS011;5968;50.362;8.982;2022-07-23T15:11:01;2.60;;;2.40;;
11821;SDS011;5968;50.362;8.982;2022-07-23T15:13:29;3.13;;;2.85;;
11821;SDS011;5968;50.362;8.982;2022-07-23T15:15:57;3.83;;;2.92;;
11821;SDS011;5968;50.362;8.982;2022-07-23T15:18:28;3.00;;;2.80;;
11821;SDS011;5968;50.362;8.982;2022-07-23T15:20:56;3.33;;;3.03;;
11821;SDS011;5968;50.362;8.982;2022-07-23T15:23:25;2.45;;;2.25;;
11821;SDS011;5968;50.362;8.982;2022-07-23T15:25:53;3.28;;;2.85;;
11821;SDS011;5968;50.362;8.982;2022-07-23T15:28:21;3.33;;;2.88;;
11821;SDS011;5968;50.362;8.982;2022-07-23T15:30:50;2.75;;;2.55;;
11821;SDS011;5968;50.362;8.982;2022-07-23T15:33:19;2.50;;;2.30;;
11821;SDS011;5968;50.362;8.982;2022-07-23T15:35:47;3.22;;;2.75;;
11821;SDS011;5968;50.362;8.982;2022-07-23T15:38:15;3.00;;;2.50;;
11821;SDS011;5968;50.362;8.982;2022-07-23T15:40:52;5.88;;;2.67;;
11821;SDS011;5968;50.362;8.982;2022-07-23T15:43:21;2.50;;;2.20;;
11821;SDS011;5968;50.362;8.982;2022-07-23T15:45:51;2.60;;;2.40;;
11821;SDS011;5968;50.362;8.982;2022-07-23T15:48:20;4.00;;;2.63;;
11821;SDS011;5968;50.362;8.982;2022-07-23T15:50:48;2.58;;;2.35;;